Weather History for Corinth, MS

Change the Weather History Date:

Friday, May 24, 2013

  Actual Average Record
Temperature  
Mean Temperature 65 °F -  
Max Temperature 75 °F 84 °F 94 °F (1953)
Min Temperature 55 °F 60 °F 43 °F (1931)
Growing Degree Days 15 (Base 50)    
Moisture  
Dew Point 50 °F    
Average Humidity 64    
Maximum Humidity 94    
Minimum Humidity 36    
Precipitation  
Precipitation 0.00 in - - ()
Sea Level Pressure  
Sea Level Pressure 30.24 in    
Wind  
Wind Speed 7 mph (NNE)    
Max Wind Speed 14 mph    
Max Gust Speed 18 mph    
Visibility 10 miles    
Events      
Averages and records for this station are not official NWS values.
T = Trace of Precipitation, MM = Missing Value Source: NWS Daily Summary

Daily Weather History Graph

Daily Weather History Graph

Search for Another Location

Airport:

Trip Planner

Search our weather history database for the weather conditions in past years. The results will help you decide how hot, cold, wet, or windy it might be!

Date:

Astronomy

May. 24, 2013 Rise Set
Actual Time 5:45 AM CDT 7:57 PM CDT
Civil Twilight 5:16 AM CDT 8:26 PM CDT
Nautical Twilight 4:41 AM CDT 9:01 PM CDT
Astronomical Twilight 4:03 AM CDT 9:39 PM CDT
Moon 7:40 PM CDT (5/24) 5:15 AM CDT (5/24)
Length of Visible Light 15h 10m
Length of Day
14h 12m
Full, 100% of the Moon is Illuminated
May 24
Full
May 24
Full
May 31
Last Quarter
Jun 8
New
Jun 16
First Quarter

Hourly Weather History & Observations

Time (CDT) Temp. Dew Point Humidity Pressure Visibility Wind Dir Wind Speed Gust Speed Precip Events Conditions
12:10 AM 64.4 °F 55.4 °F 73% 30.12 in 10.0 mi North 5.8 mph - N/A   Partly Cloudy
12:35 AM 64.4 °F 55.4 °F 73% 30.13 in 10.0 mi NNW 3.5 mph - N/A   Clear
12:55 AM 62.6 °F 55.4 °F 77% 30.14 in 10.0 mi NNW 4.6 mph - N/A   Clear
1:15 AM 62.6 °F 55.4 °F 77% 30.15 in 10.0 mi NW 4.6 mph - N/A   Clear
1:35 AM 62.6 °F 55.4 °F 77% 30.14 in 10.0 mi North 4.6 mph - N/A   Clear
1:55 AM 62.6 °F 55.4 °F 77% 30.14 in 10.0 mi North 6.9 mph - N/A   Clear
2:15 AM 60.8 °F 55.4 °F 82% 30.13 in 10.0 mi North 6.9 mph - N/A   Clear
2:35 AM 60.8 °F 55.4 °F 82% 30.15 in 10.0 mi NNW 5.8 mph - N/A   Clear
2:55 AM 59.0 °F 55.4 °F 88% 30.15 in 10.0 mi North 5.8 mph - N/A   Clear
3:15 AM 59.0 °F 55.4 °F 88% 30.15 in 10.0 mi North 6.9 mph - N/A   Clear
3:35 AM 59.0 °F 53.6 °F 82% 30.15 in 10.0 mi North 8.1 mph 16.1 mph N/A   Clear
3:55 AM 59.0 °F 53.6 °F 82% 30.15 in 10.0 mi North 9.2 mph 16.1 mph N/A   Clear
4:15 AM 59.0 °F 53.6 °F 82% 30.16 in 10.0 mi North 6.9 mph - N/A   Mostly Cloudy
4:35 AM 59.0 °F 53.6 °F 82% 30.17 in 10.0 mi NNE 12.7 mph - N/A   Overcast
4:55 AM 59.0 °F 53.6 °F 82% 30.18 in 10.0 mi North 9.2 mph - N/A   Overcast
5:15 AM 57.2 °F 53.6 °F 88% 30.18 in 10.0 mi North 6.9 mph - N/A   Overcast
5:35 AM 57.2 °F 51.8 °F 82% 30.19 in 10.0 mi North 6.9 mph - N/A   Mostly Cloudy
5:55 AM 57.2 °F 51.8 °F 82% 30.20 in 10.0 mi NNW 4.6 mph - N/A   Overcast
6:15 AM 57.2 °F 51.8 °F 82% 30.21 in 10.0 mi North 8.1 mph - N/A   Overcast
6:35 AM 57.2 °F 50.0 °F 77% 30.22 in 7.0 mi North 8.1 mph - N/A   Overcast
6:55 AM 57.2 °F 50.0 °F 77% 30.24 in 10.0 mi North 9.2 mph - N/A   Overcast
7:15 AM 59.0 °F 50.0 °F 72% 30.25 in 10.0 mi North 6.9 mph - N/A   Overcast
7:30 AM 57.2 °F 50.0 °F 77% 30.26 in 10.0 mi NNE 9.2 mph 16.1 mph N/A   Overcast
7:55 AM 57.2 °F 48.2 °F 72% 30.27 in 10.0 mi NNE 10.4 mph - N/A   Overcast
8:15 AM 59.0 °F 48.2 °F 67% 30.28 in 10.0 mi North 9.2 mph - N/A   Overcast
8:35 AM 59.0 °F 48.2 °F 67% 30.29 in 10.0 mi NNE 11.5 mph 16.1 mph N/A   Mostly Cloudy
8:55 AM 60.8 °F 50.0 °F 68% 30.29 in 10.0 mi NNE 10.4 mph - N/A   Partly Cloudy
9:15 AM 62.6 °F 50.0 °F 63% 30.29 in 10.0 mi North 10.4 mph - N/A   Clear
9:35 AM 62.6 °F 50.0 °F 63% 30.29 in 10.0 mi NE 9.2 mph - N/A   Clear
9:55 AM 64.4 °F 50.0 °F 59% 30.29 in 10.0 mi NE 11.5 mph - N/A   Clear
10:15 AM 64.4 °F 50.0 °F 59% 30.29 in 10.0 mi NE 9.2 mph 18.4 mph N/A   Clear
10:35 AM 66.2 °F 50.0 °F 56% 30.29 in 10.0 mi NE 11.5 mph 17.3 mph N/A   Clear
10:55 AM 66.2 °F 48.2 °F 52% 30.29 in 10.0 mi NE 13.8 mph - N/A   Clear
11:15 AM 66.2 °F 48.2 °F 52% 30.30 in 10.0 mi NE 11.5 mph 17.3 mph N/A   Clear
11:35 AM 68.0 °F 48.2 °F 49% 30.29 in 10.0 mi NNE 8.1 mph - N/A   Clear
11:55 AM 68.0 °F 50.0 °F 52% 30.29 in 10.0 mi North 6.9 mph - N/A   Clear
12:15 PM 68.0 °F 48.2 °F 49% 30.29 in 10.0 mi NNE 5.8 mph - N/A   Clear
12:35 PM 71.6 °F 48.2 °F 43% 30.29 in 10.0 mi NNE 8.1 mph 16.1 mph N/A   Clear
12:55 PM 71.6 °F 46.4 °F 41% 30.29 in 7.0 mi NNE 10.4 mph 16.1 mph N/A   Clear
1:15 PM 71.6 °F 44.6 °F 38% 30.28 in 10.0 mi NNE 8.1 mph - N/A   Clear
1:35 PM 71.6 °F 44.6 °F 38% 30.28 in 10.0 mi NNE 9.2 mph - N/A   Clear
1:55 PM 73.4 °F 46.4 °F 38% 30.28 in 10.0 mi NE 6.9 mph - N/A   Clear
2:15 PM 73.4 °F 46.4 °F 38% 30.28 in 10.0 mi North 11.5 mph - N/A   Clear
2:35 PM 73.4 °F 46.4 °F 38% 30.28 in 10.0 mi NNE 6.9 mph 17.3 mph N/A   Clear
2:55 PM 73.4 °F 46.4 °F 38% 30.27 in 10.0 mi NE 10.4 mph 17.3 mph N/A   Clear
3:15 PM 73.4 °F 44.6 °F 36% 30.27 in 10.0 mi NNE 11.5 mph 17.3 mph N/A   Clear
3:35 PM 73.4 °F 46.4 °F 38% 30.26 in 10.0 mi ENE 11.5 mph - N/A   Clear
3:55 PM 75.2 °F 46.4 °F 36% 30.27 in 10.0 mi ENE 10.4 mph - N/A   Clear
4:15 PM 73.4 °F 46.4 °F 38% 30.26 in 10.0 mi NNE 12.7 mph - N/A   Clear
4:35 PM 73.4 °F 46.4 °F 38% 30.26 in 10.0 mi NNE 10.4 mph - N/A   Clear
4:55 PM 73.4 °F 46.4 °F 38% 30.26 in 10.0 mi NNE 10.4 mph 17.3 mph N/A   Clear
5:15 PM 73.4 °F 46.4 °F 38% 30.25 in 10.0 mi NE 9.2 mph - N/A   Clear
5:35 PM 73.4 °F 46.4 °F 38% 30.25 in 10.0 mi NNE 8.1 mph - N/A   Clear
5:55 PM 73.4 °F 46.4 °F 38% 30.24 in 10.0 mi NE 8.1 mph - N/A   Clear
6:15 PM 73.4 °F 46.4 °F 38% 30.23 in 10.0 mi NE 6.9 mph - N/A   Clear
6:35 PM 71.6 °F 48.2 °F 43% 30.23 in 10.0 mi NE 6.9 mph - N/A   Clear
6:55 PM 69.8 °F 48.2 °F 46% 30.22 in 10.0 mi NE 5.8 mph - N/A   Clear
7:10 PM 68.0 °F 48.2 °F 49% 30.22 in 10.0 mi NE 5.8 mph - N/A   Clear
7:35 PM 66.2 °F 48.2 °F 52% 30.22 in 10.0 mi NNE 3.5 mph - N/A   Clear
7:55 PM 66.2 °F 53.6 °F 64% 30.24 in 10.0 mi Calm Calm - N/A   Clear
8:15 PM 62.6 °F 53.6 °F 72% 30.24 in 10.0 mi North 3.5 mph - N/A   Clear
8:35 PM 60.8 °F 53.6 °F 77% 30.24 in 10.0 mi Calm Calm - N/A   Clear
8:55 PM 60.8 °F 53.6 °F 77% 30.24 in 10.0 mi Calm Calm - N/A   Clear
9:15 PM 59.0 °F 53.6 °F 82% 30.25 in 10.0 mi Calm Calm - N/A   Clear
9:30 PM 59.0 °F 53.6 °F 82% 30.26 in 10.0 mi Calm Calm - N/A   Clear
9:55 PM 59.0 °F 53.6 °F 82% 30.26 in 4.0 mi Calm Calm - N/A   Haze
10:15 PM 57.2 °F 53.6 °F 88% 30.27 in 5.0 mi Calm Calm - N/A   Clear
10:35 PM 57.2 °F 51.8 °F 82% 30.27 in 10.0 mi Calm Calm - N/A   Clear
10:55 PM 55.4 °F 53.6 °F 94% 30.26 in 10.0 mi Calm Calm - N/A   Clear
11:15 PM 55.4 °F 51.8 °F 88% 30.27 in 10.0 mi Calm Calm - N/A   Clear
11:35 PM 57.2 °F 50.0 °F 77% 30.26 in 10.0 mi Calm Calm - N/A   Clear
11:55 PM 57.2 °F 50.0 °F 77% 30.26 in 10.0 mi Calm Calm - N/A   Clear